sensor_id;sensor_type;location;lat;lon;timestamp;P1;durP1;ratioP1;P2;durP2;ratioP2
10894;SDS011;5500;49.886;8.074;2024-03-02T00:02:01;9.47;;;7.77;;
10894;SDS011;5500;49.886;8.074;2024-03-02T00:04:30;8.77;;;7.87;;
10894;SDS011;5500;49.886;8.074;2024-03-02T00:07:01;8.57;;;6.87;;
10894;SDS011;5500;49.886;8.074;2024-03-02T00:09:30;7.93;;;7.13;;
10894;SDS011;5500;49.886;8.074;2024-03-02T00:11:59;9.40;;;7.57;;
10894;SDS011;5500;49.886;8.074;2024-03-02T00:14:28;10.03;;;8.27;;
10894;SDS011;5500;49.886;8.074;2024-03-02T00:17:00;8.77;;;7.43;;
10894;SDS011;5500;49.886;8.074;2024-03-02T00:19:29;9.43;;;7.87;;
10894;SDS011;5500;49.886;8.074;2024-03-02T00:22:02;9.80;;;8.00;;
10894;SDS011;5500;49.886;8.074;2024-03-02T00:24:31;9.90;;;7.97;;
10894;SDS011;5500;49.886;8.074;2024-03-02T00:27:01;7.97;;;7.13;;
10894;SDS011;5500;49.886;8.074;2024-03-02T00:29:32;8.63;;;7.73;;
10894;SDS011;5500;49.886;8.074;2024-03-02T00:32:02;10.47;;;7.60;;
10894;SDS011;5500;49.886;8.074;2024-03-02T00:34:31;11.90;;;7.70;;
10894;SDS011;5500;49.886;8.074;2024-03-02T00:37:16;9.57;;;7.93;;
10894;SDS011;5500;49.886;8.074;2024-03-02T00:39:48;10.07;;;8.53;;
10894;SDS011;5500;49.886;8.074;2024-03-02T00:42:20;11.47;;;9.10;;
10894;SDS011;5500;49.886;8.074;2024-03-02T00:44:49;14.60;;;9.67;;
10894;SDS011;5500;49.886;8.074;2024-03-02T00:47:20;9.90;;;8.87;;
10894;SDS011;5500;49.886;8.074;2024-03-02T00:49:49;13.13;;;9.57;;
10894;SDS011;5500;49.886;8.074;2024-03-02T00:52:21;11.50;;;8.67;;
10894;SDS011;5500;49.886;8.074;2024-03-02T00:54:50;9.73;;;8.73;;
10894;SDS011;5500;49.886;8.074;2024-03-02T00:57:19;13.20;;;9.27;;
10894;SDS011;5500;49.886;8.074;2024-03-02T00:59:53;11.90;;;10.23;;
10894;SDS011;5500;49.886;8.074;2024-03-02T01:02:22;12.77;;;10.30;;
10894;SDS011;5500;49.886;8.074;2024-03-02T01:04:50;11.23;;;10.03;;
10894;SDS011;5500;49.886;8.074;2024-03-02T01:07:20;11.90;;;10.13;;
10894;SDS011;5500;49.886;8.074;2024-03-02T01:09:49;10.03;;;9.03;;
10894;SDS011;5500;49.886;8.074;2024-03-02T01:12:18;12.23;;;9.90;;
10894;SDS011;5500;49.886;8.074;2024-03-02T01:14:47;10.87;;;9.40;;
10894;SDS011;5500;49.886;8.074;2024-03-02T01:17:18;12.23;;;10.87;;
10894;SDS011;5500;49.886;8.074;2024-03-02T01:19:48;12.17;;;9.33;;
10894;SDS011;5500;49.886;8.074;2024-03-02T01:22:21;12.23;;;10.40;;
10894;SDS011;5500;49.886;8.074;2024-03-02T01:24:54;14.17;;;11.57;;
10894;SDS011;5500;49.886;8.074;2024-03-02T01:27:24;13.40;;;11.43;;
10894;SDS011;5500;49.886;8.074;2024-03-02T01:29:53;14.63;;;11.33;;
10894;SDS011;5500;49.886;8.074;2024-03-02T01:32:28;14.90;;;11.67;;
10894;SDS011;5500;49.886;8.074;2024-03-02T01:35:00;12.40;;;10.33;;
10894;SDS011;5500;49.886;8.074;2024-03-02T01:37:31;16.33;;;12.07;;
10894;SDS011;5500;49.886;8.074;2024-03-02T01:40:02;12.97;;;11.43;;
10894;SDS011;5500;49.886;8.074;2024-03-02T01:42:39;15.40;;;11.33;;
10894;SDS011;5500;49.886;8.074;2024-03-02T01:45:08;13.90;;;10.90;;
10894;SDS011;5500;49.886;8.074;2024-03-02T01:47:37;12.93;;;11.47;;
10894;SDS011;5500;49.886;8.074;2024-03-02T01:50:06;13.00;;;11.53;;
10894;SDS011;5500;49.886;8.074;2024-03-02T01:52:37;14.07;;;11.87;;
10894;SDS011;5500;49.886;8.074;2024-03-02T01:55:07;12.40;;;10.53;;
10894;SDS011;5500;49.886;8.074;2024-03-02T01:57:36;13.53;;;10.87;;
10894;SDS011;5500;49.886;8.074;2024-03-02T02:00:08;13.73;;;11.80;;
10894;SDS011;5500;49.886;8.074;2024-03-02T02:02:40;14.80;;;12.63;;
10894;SDS011;5500;49.886;8.074;2024-03-02T02:05:10;13.00;;;11.60;;
10894;SDS011;5500;49.886;8.074;2024-03-02T02:07:41;14.00;;;12.20;;
10894;SDS011;5500;49.886;8.074;2024-03-02T02:10:09;14.73;;;12.70;;
10894;SDS011;5500;49.886;8.074;2024-03-02T02:12:40;13.73;;;10.40;;
10894;SDS011;5500;49.886;8.074;2024-03-02T02:17:59;8.90;;;8.00;;
10894;SDS011;5500;49.886;8.074;2024-03-02T02:20:29;9.77;;;8.53;;
10894;SDS011;5500;49.886;8.074;2024-03-02T02:23:03;8.93;;;7.97;;
10894;SDS011;5500;49.886;8.074;2024-03-02T02:25:37;9.73;;;7.93;;
10894;SDS011;5500;49.886;8.074;2024-03-02T02:28:08;10.77;;;8.40;;
10894;SDS011;5500;49.886;8.074;2024-03-02T02:30:40;10.97;;;9.73;;
10894;SDS011;5500;49.886;8.074;2024-03-02T02:33:10;13.63;;;11.30;;
10894;SDS011;5500;49.886;8.074;2024-03-02T02:35:38;12.47;;;11.17;;
10894;SDS011;5500;49.886;8.074;2024-03-02T02:38:09;15.37;;;12.70;;
10894;SDS011;5500;49.886;8.074;2024-03-02T02:40:38;19.10;;;14.00;;
10894;SDS011;5500;49.886;8.074;2024-03-02T02:43:09;28.50;;;19.23;;
10894;SDS011;5500;49.886;8.074;2024-03-02T02:45:38;23.93;;;19.03;;
10894;SDS011;5500;49.886;8.074;2024-03-02T02:48:08;19.57;;;15.43;;
10894;SDS011;5500;49.886;8.074;2024-03-02T02:50:37;19.77;;;14.27;;
10894;SDS011;5500;49.886;8.074;2024-03-02T02:53:05;17.63;;;14.20;;
10894;SDS011;5500;49.886;8.074;2024-03-02T02:55:41;16.23;;;12.57;;
10894;SDS011;5500;49.886;8.074;2024-03-02T02:58:11;15.90;;;13.30;;
10894;SDS011;5500;49.886;8.074;2024-03-02T03:00:39;15.10;;;12.20;;
10894;SDS011;5500;49.886;8.074;2024-03-02T03:03:09;13.17;;;11.77;;
10894;SDS011;5500;49.886;8.074;2024-03-02T03:05:38;8.97;;;7.90;;
10894;SDS011;5500;49.886;8.074;2024-03-02T03:08:08;7.67;;;6.77;;
10894;SDS011;5500;49.886;8.074;2024-03-02T03:10:36;6.90;;;6.10;;
10894;SDS011;5500;49.886;8.074;2024-03-02T03:13:07;8.70;;;6.53;;
10894;SDS011;5500;49.886;8.074;2024-03-02T03:15:36;8.03;;;6.33;;
10894;SDS011;5500;49.886;8.074;2024-03-02T03:18:06;6.43;;;5.57;;
10894;SDS011;5500;49.886;8.074;2024-03-02T03:20:38;8.30;;;5.67;;
10894;SDS011;5500;49.886;8.074;2024-03-02T03:23:06;10.13;;;5.83;;
10894;SDS011;5500;49.886;8.074;2024-03-02T03:25:36;6.40;;;5.70;;
10894;SDS011;5500;49.886;8.074;2024-03-02T03:28:10;6.70;;;6.00;;
10894;SDS011;5500;49.886;8.074;2024-03-02T03:30:39;7.10;;;6.13;;
10894;SDS011;5500;49.886;8.074;2024-03-02T03:33:08;9.93;;;8.47;;
10894;SDS011;5500;49.886;8.074;2024-03-02T03:35:38;15.43;;;12.40;;
10894;SDS011;5500;49.886;8.074;2024-03-02T03:38:06;17.47;;;14.83;;
10894;SDS011;5500;49.886;8.074;2024-03-02T03:40:37;19.10;;;14.23;;
10894;SDS011;5500;49.886;8.074;2024-03-02T03:43:14;16.17;;;13.70;;
10894;SDS011;5500;49.886;8.074;2024-03-02T03:45:43;16.73;;;14.43;;
10894;SDS011;5500;49.886;8.074;2024-03-02T03:48:12;16.30;;;14.50;;
10894;SDS011;5500;49.886;8.074;2024-03-02T03:50:43;15.73;;;13.33;;
10894;SDS011;5500;49.886;8.074;2024-03-02T03:53:12;17.60;;;14.23;;
10894;SDS011;5500;49.886;8.074;2024-03-02T03:55:47;16.73;;;14.67;;
10894;SDS011;5500;49.886;8.074;2024-03-02T03:58:20;16.43;;;13.33;;
10894;SDS011;5500;49.886;8.074;2024-03-02T04:00:49;16.83;;;13.93;;
10894;SDS011;5500;49.886;8.074;2024-03-02T04:03:19;17.87;;;14.47;;
10894;SDS011;5500;49.886;8.074;2024-03-02T04:05:48;17.07;;;14.53;;
10894;SDS011;5500;49.886;8.074;2024-03-02T04:08:18;16.33;;;13.27;;
10894;SDS011;5500;49.886;8.074;2024-03-02T04:10:45;18.30;;;14.57;;
10894;SDS011;5500;49.886;8.074;2024-03-02T04:13:14;17.57;;;15.00;;
10894;SDS011;5500;49.886;8.074;2024-03-02T04:15:44;22.67;;;15.03;;
10894;SDS011;5500;49.886;8.074;2024-03-02T04:18:17;19.33;;;15.43;;
10894;SDS011;5500;49.886;8.074;2024-03-02T04:20:46;18.60;;;16.50;;
10894;SDS011;5500;49.886;8.074;2024-03-02T04:23:17;17.87;;;14.77;;
10894;SDS011;5500;49.886;8.074;2024-03-02T04:25:46;18.73;;;15.53;;
10894;SDS011;5500;49.886;8.074;2024-03-02T04:28:16;20.23;;;15.63;;
10894;SDS011;5500;49.886;8.074;2024-03-02T04:30:46;16.83;;;14.23;;
10894;SDS011;5500;49.886;8.074;2024-03-02T04:33:15;19.23;;;14.90;;
10894;SDS011;5500;49.886;8.074;2024-03-02T04:35:44;18.50;;;14.67;;
10894;SDS011;5500;49.886;8.074;2024-03-02T04:38:13;19.23;;;15.10;;
10894;SDS011;5500;49.886;8.074;2024-03-02T04:40:42;15.30;;;13.33;;
10894;SDS011;5500;49.886;8.074;2024-03-02T04:43:11;18.03;;;14.20;;
10894;SDS011;5500;49.886;8.074;2024-03-02T04:45:43;18.67;;;14.80;;
10894;SDS011;5500;49.886;8.074;2024-03-02T04:48:14;20.73;;;14.53;;
10894;SDS011;5500;49.886;8.074;2024-03-02T04:50:43;17.53;;;14.10;;
10894;SDS011;5500;49.886;8.074;2024-03-02T04:53:12;15.17;;;13.53;;
10894;SDS011;5500;49.886;8.074;2024-03-02T04:55:40;18.63;;;14.57;;
10894;SDS011;5500;49.886;8.074;2024-03-02T04:58:38;15.50;;;12.77;;
10894;SDS011;5500;49.886;8.074;2024-03-02T05:01:07;17.30;;;13.13;;
10894;SDS011;5500;49.886;8.074;2024-03-02T05:03:40;14.60;;;12.37;;
10894;SDS011;5500;49.886;8.074;2024-03-02T05:06:09;15.00;;;12.63;;
10894;SDS011;5500;49.886;8.074;2024-03-02T05:08:40;13.10;;;11.40;;
10894;SDS011;5500;49.886;8.074;2024-03-02T05:11:09;12.50;;;9.50;;
10894;SDS011;5500;49.886;8.074;2024-03-02T05:13:51;10.53;;;8.90;;
10894;SDS011;5500;49.886;8.074;2024-03-02T05:16:19;10.20;;;9.20;;
10894;SDS011;5500;49.886;8.074;2024-03-02T05:18:53;11.43;;;9.20;;
10894;SDS011;5500;49.886;8.074;2024-03-02T05:21:23;13.27;;;10.27;;
10894;SDS011;5500;49.886;8.074;2024-03-02T05:23:54;10.07;;;8.97;;
10894;SDS011;5500;49.886;8.074;2024-03-02T05:26:23;11.57;;;8.77;;
10894;SDS011;5500;49.886;8.074;2024-03-02T05:28:54;10.93;;;9.80;;
10894;SDS011;5500;49.886;8.074;2024-03-02T05:31:23;15.17;;;9.60;;
10894;SDS011;5500;49.886;8.074;2024-03-02T05:33:54;11.40;;;9.63;;
10894;SDS011;5500;49.886;8.074;2024-03-02T05:36:25;9.87;;;8.83;;
10894;SDS011;5500;49.886;8.074;2024-03-02T05:38:59;12.57;;;9.77;;
10894;SDS011;5500;49.886;8.074;2024-03-02T05:41:29;11.27;;;9.67;;
10894;SDS011;5500;49.886;8.074;2024-03-02T05:43:58;11.43;;;10.23;;
10894;SDS011;5500;49.886;8.074;2024-03-02T05:46:27;9.97;;;8.97;;
10894;SDS011;5500;49.886;8.074;2024-03-02T05:49:00;13.27;;;11.17;;
10894;SDS011;5500;49.886;8.074;2024-03-02T05:51:29;21.97;;;17.73;;
10894;SDS011;5500;49.886;8.074;2024-03-02T05:53:59;21.90;;;16.43;;
10894;SDS011;5500;49.886;8.074;2024-03-02T05:56:27;26.00;;;19.30;;
10894;SDS011;5500;49.886;8.074;2024-03-02T05:58:59;25.60;;;19.83;;
10894;SDS011;5500;49.886;8.074;2024-03-02T06:01:41;23.17;;;17.73;;
10894;SDS011;5500;49.886;8.074;2024-03-02T06:04:13;19.13;;;15.80;;
10894;SDS011;5500;49.886;8.074;2024-03-02T06:06:42;19.47;;;14.77;;
10894;SDS011;5500;49.886;8.074;2024-03-02T06:09:14;15.93;;;13.10;;
10894;SDS011;5500;49.886;8.074;2024-03-02T06:11:44;14.73;;;12.70;;
10894;SDS011;5500;49.886;8.074;2024-03-02T06:14:15;12.63;;;10.93;;
10894;SDS011;5500;49.886;8.074;2024-03-02T06:16:44;13.13;;;10.77;;
10894;SDS011;5500;49.886;8.074;2024-03-02T06:19:14;12.50;;;11.17;;
10894;SDS011;5500;49.886;8.074;2024-03-02T06:21:43;11.33;;;10.07;;
10894;SDS011;5500;49.886;8.074;2024-03-02T06:24:12;11.67;;;10.47;;
10894;SDS011;5500;49.886;8.074;2024-03-02T06:26:40;12.20;;;10.60;;
10894;SDS011;5500;49.886;8.074;2024-03-02T06:29:09;19.10;;;16.70;;
10894;SDS011;5500;49.886;8.074;2024-03-02T06:31:39;19.33;;;15.73;;
10894;SDS011;5500;49.886;8.074;2024-03-02T06:34:08;17.60;;;13.20;;
10894;SDS011;5500;49.886;8.074;2024-03-02T06:36:46;15.83;;;13.40;;
10894;SDS011;5500;49.886;8.074;2024-03-02T06:39:15;15.60;;;12.87;;
10894;SDS011;5500;49.886;8.074;2024-03-02T06:41:44;15.37;;;11.80;;
10894;SDS011;5500;49.886;8.074;2024-03-02T06:44:16;16.37;;;11.23;;
10894;SDS011;5500;49.886;8.074;2024-03-02T06:46:45;12.80;;;11.13;;
10894;SDS011;5500;49.886;8.074;2024-03-02T06:49:18;13.00;;;11.37;;
10894;SDS011;5500;49.886;8.074;2024-03-02T06:51:54;16.20;;;12.17;;
10894;SDS011;5500;49.886;8.074;2024-03-02T06:54:26;14.27;;;11.93;;
10894;SDS011;5500;49.886;8.074;2024-03-02T06:56:55;14.57;;;12.10;;
10894;SDS011;5500;49.886;8.074;2024-03-02T06:59:24;13.93;;;12.50;;
10894;SDS011;5500;49.886;8.074;2024-03-02T07:01:53;14.43;;;12.27;;
10894;SDS011;5500;49.886;8.074;2024-03-02T07:04:22;12.90;;;11.23;;
10894;SDS011;5500;49.886;8.074;2024-03-02T07:06:52;15.43;;;11.93;;
10894;SDS011;5500;49.886;8.074;2024-03-02T07:09:22;13.37;;;11.20;;
10894;SDS011;5500;49.886;8.074;2024-03-02T07:11:51;12.80;;;11.27;;
10894;SDS011;5500;49.886;8.074;2024-03-02T07:14:19;13.27;;;11.13;;
10894;SDS011;5500;49.886;8.074;2024-03-02T07:16:48;12.07;;;10.70;;
10894;SDS011;5500;49.886;8.074;2024-03-02T07:19:19;12.70;;;9.60;;
10894;SDS011;5500;49.886;8.074;2024-03-02T07:21:48;13.37;;;9.93;;
10894;SDS011;5500;49.886;8.074;2024-03-02T07:24:18;12.67;;;9.83;;
10894;SDS011;5500;49.886;8.074;2024-03-02T07:26:47;11.33;;;9.80;;
10894;SDS011;5500;49.886;8.074;2024-03-02T07:29:18;12.63;;;10.67;;
10894;SDS011;5500;49.886;8.074;2024-03-02T07:31:48;12.33;;;10.97;;
10894;SDS011;5500;49.886;8.074;2024-03-02T07:34:19;12.43;;;10.93;;
10894;SDS011;5500;49.886;8.074;2024-03-02T07:36:48;11.60;;;10.20;;
10894;SDS011;5500;49.886;8.074;2024-03-02T07:39:18;11.17;;;9.80;;
10894;SDS011;5500;49.886;8.074;2024-03-02T07:41:48;10.40;;;9.37;;
10894;SDS011;5500;49.886;8.074;2024-03-02T07:44:24;11.13;;;9.97;;
10894;SDS011;5500;49.886;8.074;2024-03-02T07:46:53;10.43;;;9.23;;
10894;SDS011;5500;49.886;8.074;2024-03-02T07:49:22;11.60;;;9.50;;
10894;SDS011;5500;49.886;8.074;2024-03-02T07:51:51;15.90;;;10.87;;
10894;SDS011;5500;49.886;8.074;2024-03-02T07:54:21;12.53;;;10.07;;
10894;SDS011;5500;49.886;8.074;2024-03-02T07:56:50;13.23;;;11.13;;
10894;SDS011;5500;49.886;8.074;2024-03-02T07:59:19;15.47;;;11.43;;
10894;SDS011;5500;49.886;8.074;2024-03-02T08:01:49;13.40;;;11.53;;
10894;SDS011;5500;49.886;8.074;2024-03-02T08:04:19;12.20;;;10.70;;
10894;SDS011;5500;49.886;8.074;2024-03-02T08:06:48;13.90;;;11.40;;
10894;SDS011;5500;49.886;8.074;2024-03-02T08:09:19;11.70;;;10.43;;
10894;SDS011;5500;49.886;8.074;2024-03-02T08:11:55;15.23;;;10.70;;
10894;SDS011;5500;49.886;8.074;2024-03-02T08:14:25;12.30;;;9.90;;
10894;SDS011;5500;49.886;8.074;2024-03-02T08:16:54;14.30;;;10.33;;
10894;SDS011;5500;49.886;8.074;2024-03-02T08:19:24;12.80;;;11.20;;
10894;SDS011;5500;49.886;8.074;2024-03-02T08:21:55;11.23;;;9.93;;
10894;SDS011;5500;49.886;8.074;2024-03-02T08:24:24;12.70;;;10.03;;
10894;SDS011;5500;49.886;8.074;2024-03-02T08:26:54;10.53;;;9.13;;
10894;SDS011;5500;49.886;8.074;2024-03-02T08:29:22;10.60;;;9.13;;
10894;SDS011;5500;49.886;8.074;2024-03-02T08:31:51;9.30;;;8.30;;
10894;SDS011;5500;49.886;8.074;2024-03-02T08:34:20;11.10;;;8.67;;
10894;SDS011;5500;49.886;8.074;2024-03-02T08:36:49;10.13;;;8.43;;
10894;SDS011;5500;49.886;8.074;2024-03-02T08:39:20;10.43;;;8.30;;
10894;SDS011;5500;49.886;8.074;2024-03-02T08:41:49;10.83;;;8.67;;
10894;SDS011;5500;49.886;8.074;2024-03-02T08:44:22;9.33;;;8.30;;
10894;SDS011;5500;49.886;8.074;2024-03-02T08:46:52;9.20;;;8.30;;
10894;SDS011;5500;49.886;8.074;2024-03-02T08:49:21;11.67;;;9.13;;
10894;SDS011;5500;49.886;8.074;2024-03-02T08:51:50;10.23;;;8.67;;
10894;SDS011;5500;49.886;8.074;2024-03-02T08:54:23;10.27;;;9.10;;
10894;SDS011;5500;49.886;8.074;2024-03-02T08:56:52;10.17;;;9.10;;
10894;SDS011;5500;49.886;8.074;2024-03-02T08:59:23;11.63;;;8.17;;
10894;SDS011;5500;49.886;8.074;2024-03-02T09:01:55;10.60;;;9.10;;
10894;SDS011;5500;49.886;8.074;2024-03-02T09:04:24;9.37;;;8.47;;
10894;SDS011;5500;49.886;8.074;2024-03-02T09:07:00;8.87;;;7.80;;
10894;SDS011;5500;49.886;8.074;2024-03-02T09:09:28;8.73;;;7.83;;
10894;SDS011;5500;49.886;8.074;2024-03-02T09:12:00;9.40;;;8.40;;
10894;SDS011;5500;49.886;8.074;2024-03-02T09:14:31;9.73;;;8.73;;
10894;SDS011;5500;49.886;8.074;2024-03-02T09:17:00;8.60;;;7.70;;
10894;SDS011;5500;49.886;8.074;2024-03-02T09:19:32;8.23;;;7.30;;
10894;SDS011;5500;49.886;8.074;2024-03-02T09:22:01;8.73;;;7.83;;
10894;SDS011;5500;49.886;8.074;2024-03-02T09:24:30;12.37;;;7.93;;
10894;SDS011;5500;49.886;8.074;2024-03-02T09:26:59;9.10;;;8.17;;
10894;SDS011;5500;49.886;8.074;2024-03-02T09:29:26;8.87;;;7.97;;
10894;SDS011;5500;49.886;8.074;2024-03-02T09:31:57;8.47;;;7.17;;
10894;SDS011;5500;49.886;8.074;2024-03-02T09:34:26;13.73;;;8.53;;
10894;SDS011;5500;49.886;8.074;2024-03-02T09:36:55;9.67;;;8.67;;
10894;SDS011;5500;49.886;8.074;2024-03-02T09:39:25;12.13;;;7.87;;
10894;SDS011;5500;49.886;8.074;2024-03-02T09:41:54;10.93;;;8.20;;
10894;SDS011;5500;49.886;8.074;2024-03-02T09:44:22;10.53;;;9.00;;
10894;SDS011;5500;49.886;8.074;2024-03-02T09:46:52;8.67;;;7.77;;
10894;SDS011;5500;49.886;8.074;2024-03-02T09:49:26;9.83;;;8.83;;
10894;SDS011;5500;49.886;8.074;2024-03-02T09:51:55;9.67;;;8.00;;
10894;SDS011;5500;49.886;8.074;2024-03-02T09:54:24;9.07;;;7.97;;
10894;SDS011;5500;49.886;8.074;2024-03-02T09:56:54;11.07;;;8.13;;
10894;SDS011;5500;49.886;8.074;2024-03-02T09:59:23;9.47;;;8.53;;
10894;SDS011;5500;49.886;8.074;2024-03-02T10:01:58;8.50;;;7.70;;
10894;SDS011;5500;49.886;8.074;2024-03-02T10:04:34;9.80;;;7.40;;
10894;SDS011;5500;49.886;8.074;2024-03-02T10:07:13;8.57;;;7.77;;
10894;SDS011;5500;49.886;8.074;2024-03-02T10:09:43;8.57;;;7.40;;
10894;SDS011;5500;49.886;8.074;2024-03-02T10:12:14;10.53;;;8.03;;
10894;SDS011;5500;49.886;8.074;2024-03-02T10:14:46;9.07;;;7.10;;
10894;SDS011;5500;49.886;8.074;2024-03-02T10:17:19;8.20;;;7.40;;
10894;SDS011;5500;49.886;8.074;2024-03-02T10:19:51;8.80;;;7.60;;
10894;SDS011;5500;49.886;8.074;2024-03-02T10:22:22;8.47;;;6.87;;
10894;SDS011;5500;49.886;8.074;2024-03-02T10:24:52;8.07;;;7.20;;
10894;SDS011;5500;49.886;8.074;2024-03-02T10:27:26;8.07;;;7.13;;
10894;SDS011;5500;49.886;8.074;2024-03-02T10:29:58;7.80;;;7.00;;
10894;SDS011;5500;49.886;8.074;2024-03-02T10:32:32;10.27;;;7.80;;
10894;SDS011;5500;49.886;8.074;2024-03-02T10:35:03;9.60;;;8.20;;
10894;SDS011;5500;49.886;8.074;2024-03-02T10:37:33;9.13;;;8.23;;
10894;SDS011;5500;49.886;8.074;2024-03-02T10:40:04;10.60;;;7.87;;
10894;SDS011;5500;49.886;8.074;2024-03-02T10:42:34;8.60;;;7.50;;
10894;SDS011;5500;49.886;8.074;2024-03-02T10:45:04;8.77;;;7.13;;
10894;SDS011;5500;49.886;8.074;2024-03-02T10:47:35;9.40;;;7.67;;
10894;SDS011;5500;49.886;8.074;2024-03-02T10:50:07;9.00;;;7.00;;
10894;SDS011;5500;49.886;8.074;2024-03-02T10:52:39;8.87;;;7.10;;
10894;SDS011;5500;49.886;8.074;2024-03-02T10:55:08;7.80;;;6.87;;
10894;SDS011;5500;49.886;8.074;2024-03-02T10:57:44;7.70;;;6.73;;
10894;SDS011;5500;49.886;8.074;2024-03-02T11:00:22;6.37;;;5.70;;
10894;SDS011;5500;49.886;8.074;2024-03-02T11:02:58;6.77;;;5.80;;
10894;SDS011;5500;49.886;8.074;2024-03-02T11:05:33;7.70;;;6.07;;
10894;SDS011;5500;49.886;8.074;2024-03-02T11:08:05;10.33;;;7.43;;
10894;SDS011;5500;49.886;8.074;2024-03-02T11:10:36;10.03;;;7.33;;
10894;SDS011;5500;49.886;8.074;2024-03-02T11:13:09;8.73;;;7.40;;
10894;SDS011;5500;49.886;8.074;2024-03-02T11:15:43;7.43;;;6.63;;
10894;SDS011;5500;49.886;8.074;2024-03-02T11:18:12;10.63;;;8.00;;
10894;SDS011;5500;49.886;8.074;2024-03-02T11:20:49;8.17;;;7.37;;
10894;SDS011;5500;49.886;8.074;2024-03-02T11:23:19;7.17;;;6.37;;
10894;SDS011;5500;49.886;8.074;2024-03-02T11:28:47;6.27;;;5.67;;
10894;SDS011;5500;49.886;8.074;2024-03-02T11:31:16;6.77;;;5.87;;
10894;SDS011;5500;49.886;8.074;2024-03-02T11:33:45;6.93;;;5.60;;
10894;SDS011;5500;49.886;8.074;2024-03-02T11:36:16;7.23;;;6.53;;
10894;SDS011;5500;49.886;8.074;2024-03-02T11:38:45;7.40;;;6.70;;
10894;SDS011;5500;49.886;8.074;2024-03-02T11:41:15;7.83;;;6.10;;
10894;SDS011;5500;49.886;8.074;2024-03-02T11:43:45;8.87;;;6.67;;
10894;SDS011;5500;49.886;8.074;2024-03-02T11:46:14;8.00;;;6.30;;
10894;SDS011;5500;49.886;8.074;2024-03-02T11:48:43;7.53;;;6.73;;
10894;SDS011;5500;49.886;8.074;2024-03-02T11:51:11;10.03;;;7.70;;
10894;SDS011;5500;49.886;8.074;2024-03-02T11:53:41;9.27;;;7.50;;
10894;SDS011;5500;49.886;8.074;2024-03-02T11:56:10;11.50;;;8.20;;
10894;SDS011;5500;49.886;8.074;2024-03-02T11:58:43;7.90;;;7.10;;
10894;SDS011;5500;49.886;8.074;2024-03-02T12:01:12;7.93;;;6.60;;
10894;SDS011;5500;49.886;8.074;2024-03-02T12:03:42;7.77;;;7.03;;
10894;SDS011;5500;49.886;8.074;2024-03-02T12:06:11;7.87;;;7.07;;
10894;SDS011;5500;49.886;8.074;2024-03-02T12:08:43;8.00;;;7.20;;
10894;SDS011;5500;49.886;8.074;2024-03-02T12:11:13;8.43;;;6.50;;
10894;SDS011;5500;49.886;8.074;2024-03-02T12:13:55;8.67;;;7.67;;
10894;SDS011;5500;49.886;8.074;2024-03-02T12:16:24;7.57;;;6.70;;
10894;SDS011;5500;49.886;8.074;2024-03-02T12:18:54;9.07;;;6.30;;
10894;SDS011;5500;49.886;8.074;2024-03-02T12:21:23;8.30;;;7.00;;
10894;SDS011;5500;49.886;8.074;2024-03-02T12:23:57;8.60;;;7.63;;
10894;SDS011;5500;49.886;8.074;2024-03-02T12:26:27;7.40;;;6.60;;
10894;SDS011;5500;49.886;8.074;2024-03-02T12:28:59;8.83;;;7.57;;
10894;SDS011;5500;49.886;8.074;2024-03-02T12:31:30;9.40;;;7.70;;
10894;SDS011;5500;49.886;8.074;2024-03-02T12:34:00;8.53;;;7.33;;
10894;SDS011;5500;49.886;8.074;2024-03-02T12:36:29;7.17;;;6.47;;
10894;SDS011;5500;49.886;8.074;2024-03-02T12:39:11;9.27;;;6.60;;
10894;SDS011;5500;49.886;8.074;2024-03-02T12:41:40;6.53;;;5.87;;
10894;SDS011;5500;49.886;8.074;2024-03-02T12:44:10;7.73;;;6.23;;
10894;SDS011;5500;49.886;8.074;2024-03-02T12:46:39;8.53;;;6.17;;
10894;SDS011;5500;49.886;8.074;2024-03-02T12:49:09;7.77;;;6.27;;
10894;SDS011;5500;49.886;8.074;2024-03-02T12:51:39;7.83;;;6.93;;
10894;SDS011;5500;49.886;8.074;2024-03-02T12:54:09;7.47;;;6.50;;
10894;SDS011;5500;49.886;8.074;2024-03-02T12:56:43;8.17;;;5.67;;
10894;SDS011;5500;49.886;8.074;2024-03-02T12:59:17;8.50;;;5.83;;
10894;SDS011;5500;49.886;8.074;2024-03-02T13:01:51;7.03;;;5.87;;
10894;SDS011;5500;49.886;8.074;2024-03-02T13:04:24;7.63;;;6.30;;
10894;SDS011;5500;49.886;8.074;2024-03-02T13:06:53;8.07;;;5.13;;
10894;SDS011;5500;49.886;8.074;2024-03-02T13:09:27;7.90;;;6.23;;
10894;SDS011;5500;49.886;8.074;2024-03-02T13:11:54;9.23;;;5.90;;
10894;SDS011;5500;49.886;8.074;2024-03-02T13:14:23;9.63;;;6.17;;
10894;SDS011;5500;49.886;8.074;2024-03-02T13:16:52;7.30;;;5.97;;
10894;SDS011;5500;49.886;8.074;2024-03-02T13:19:21;7.10;;;5.60;;
10894;SDS011;5500;49.886;8.074;2024-03-02T13:21:51;8.10;;;5.20;;
10894;SDS011;5500;49.886;8.074;2024-03-02T13:24:20;5.77;;;5.17;;
10894;SDS011;5500;49.886;8.074;2024-03-02T13:26:53;7.30;;;4.83;;
10894;SDS011;5500;49.886;8.074;2024-03-02T13:29:22;6.60;;;4.30;;
10894;SDS011;5500;49.886;8.074;2024-03-02T13:31:51;6.80;;;4.57;;
10894;SDS011;5500;49.886;8.074;2024-03-02T13:34:19;4.23;;;3.83;;
10894;SDS011;5500;49.886;8.074;2024-03-02T13:36:47;5.27;;;3.70;;
10894;SDS011;5500;49.886;8.074;2024-03-02T13:39:18;6.00;;;4.53;;
10894;SDS011;5500;49.886;8.074;2024-03-02T13:41:45;5.60;;;4.67;;
10894;SDS011;5500;49.886;8.074;2024-03-02T13:44:20;3.67;;;3.20;;
10894;SDS011;5500;49.886;8.074;2024-03-02T13:46:48;4.47;;;3.67;;
10894;SDS011;5500;49.886;8.074;2024-03-02T13:49:17;3.37;;;3.07;;
10894;SDS011;5500;49.886;8.074;2024-03-02T13:51:45;3.37;;;3.03;;
10894;SDS011;5500;49.886;8.074;2024-03-02T13:54:13;4.93;;;3.30;;
10894;SDS011;5500;49.886;8.074;2024-03-02T13:56:40;4.37;;;2.73;;
10894;SDS011;5500;49.886;8.074;2024-03-02T13:59:08;4.30;;;3.23;;
10894;SDS011;5500;49.886;8.074;2024-03-02T14:01:37;3.53;;;2.40;;
10894;SDS011;5500;49.886;8.074;2024-03-02T14:04:05;4.00;;;3.30;;
10894;SDS011;5500;49.886;8.074;2024-03-02T14:06:33;3.77;;;2.63;;
10894;SDS011;5500;49.886;8.074;2024-03-02T14:09:01;2.97;;;2.43;;
10894;SDS011;5500;49.886;8.074;2024-03-02T14:11:28;4.07;;;2.90;;
10894;SDS011;5500;49.886;8.074;2024-03-02T14:13:56;4.10;;;2.73;;
10894;SDS011;5500;49.886;8.074;2024-03-02T14:16:25;3.23;;;2.73;;
10894;SDS011;5500;49.886;8.074;2024-03-02T14:18:55;3.33;;;2.90;;
10894;SDS011;5500;49.886;8.074;2024-03-02T14:21:23;4.17;;;2.60;;
10894;SDS011;5500;49.886;8.074;2024-03-02T14:23:51;5.10;;;2.50;;
10894;SDS011;5500;49.886;8.074;2024-03-02T14:26:18;3.30;;;2.63;;
10894;SDS011;5500;49.886;8.074;2024-03-02T14:28:46;2.33;;;2.10;;
10894;SDS011;5500;49.886;8.074;2024-03-02T14:31:17;2.93;;;2.00;;
10894;SDS011;5500;49.886;8.074;2024-03-02T14:33:46;2.97;;;2.07;;
10894;SDS011;5500;49.886;8.074;2024-03-02T14:36:15;2.20;;;1.87;;
10894;SDS011;5500;49.886;8.074;2024-03-02T14:38:43;4.57;;;2.23;;
10894;SDS011;5500;49.886;8.074;2024-03-02T14:41:11;2.60;;;2.00;;
10894;SDS011;5500;49.886;8.074;2024-03-02T14:43:39;2.23;;;2.03;;
10894;SDS011;5500;49.886;8.074;2024-03-02T14:46:07;3.03;;;1.63;;
10894;SDS011;5500;49.886;8.074;2024-03-02T14:48:35;1.63;;;1.53;;
10894;SDS011;5500;49.886;8.074;2024-03-02T14:51:03;4.10;;;2.00;;
10894;SDS011;5500;49.886;8.074;2024-03-02T14:53:33;3.63;;;2.40;;
10894;SDS011;5500;49.886;8.074;2024-03-02T14:56:01;2.20;;;1.87;;
10894;SDS011;5500;49.886;8.074;2024-03-02T14:58:30;2.30;;;2.10;;
10894;SDS011;5500;49.886;8.074;2024-03-02T15:00:58;3.47;;;2.40;;
10894;SDS011;5500;49.886;8.074;2024-03-02T15:03:26;3.50;;;1.97;;
10894;SDS011;5500;49.886;8.074;2024-03-02T15:05:54;2.57;;;2.00;;
10894;SDS011;5500;49.886;8.074;2024-03-02T15:08:23;2.20;;;1.70;;
10894;SDS011;5500;49.886;8.074;2024-03-02T15:10:52;2.23;;;1.77;;
10894;SDS011;5500;49.886;8.074;2024-03-02T15:13:22;2.63;;;2.00;;